createdAt,value
2022-12-27T00:04:20.737Z,100
2022-12-27T00:09:18.908Z,100
2022-12-27T00:14:17.246Z,100
2022-12-27T00:19:15.635Z,100
2022-12-27T00:24:14.031Z,100
2022-12-27T00:29:12.546Z,100
2022-12-27T00:34:10.894Z,100
2022-12-27T00:39:09.053Z,100
2022-12-27T00:44:07.446Z,100
2022-12-27T00:49:05.844Z,100
2022-12-27T00:54:04.392Z,100
2022-12-27T00:59:02.818Z,100
2022-12-27T01:04:01.068Z,100
2022-12-27T01:08:59.323Z,100
2022-12-27T01:13:57.993Z,100
2022-12-27T01:18:56.288Z,100
2022-12-27T01:23:54.607Z,100
2022-12-27T01:28:53.160Z,100
2022-12-27T01:33:51.625Z,100
2022-12-27T01:38:49.897Z,100
2022-12-27T01:43:48.214Z,100
2022-12-27T01:48:46.390Z,100
2022-12-27T01:53:44.621Z,100
2022-12-27T01:58:42.963Z,100
2022-12-27T02:03:41.313Z,100
2022-12-27T02:08:39.514Z,100
2022-12-27T02:13:37.725Z,100
2022-12-27T02:18:35.973Z,100
2022-12-27T02:23:39.331Z,100
2022-12-27T02:28:32.299Z,100
2022-12-27T02:33:30.786Z,100
2022-12-27T02:38:29.024Z,100
2022-12-27T02:43:27.396Z,100
2022-12-27T02:48:25.629Z,100
2022-12-27T02:53:23.895Z,100
2022-12-27T02:58:21.934Z,100
2022-12-27T03:03:20.303Z,100
2022-12-27T03:08:18.563Z,100
2022-12-27T03:13:16.757Z,100
2022-12-27T03:18:14.913Z,100
2022-12-27T03:23:13.251Z,100
2022-12-27T03:28:11.534Z,100
2022-12-27T03:33:09.832Z,100
2022-12-27T03:38:07.946Z,100
2022-12-27T03:43:06.271Z,100
2022-12-27T03:48:04.558Z,100
2022-12-27T03:53:02.947Z,100
2022-12-27T03:58:01.075Z,100
2022-12-27T04:02:59.499Z,100
2022-12-27T04:07:57.706Z,100
2022-12-27T04:12:56.110Z,100
2022-12-27T04:17:54.477Z,100
2022-12-27T04:22:52.957Z,100
2022-12-27T04:27:51.448Z,100
2022-12-27T04:32:49.839Z,100
2022-12-27T04:37:47.993Z,100
2022-12-27T04:42:46.216Z,100
2022-12-27T04:47:44.600Z,100
2022-12-27T04:52:43.266Z,100
2022-12-27T04:57:41.562Z,100
2022-12-27T05:02:40.158Z,100
2022-12-27T05:07:38.493Z,100
2022-12-27T05:12:36.945Z,100
2022-12-27T05:17:35.105Z,100
2022-12-27T05:22:33.276Z,100
2022-12-27T05:27:31.753Z,100
2022-12-27T05:32:30.057Z,100
2022-12-27T05:37:28.644Z,100
2022-12-27T05:42:26.906Z,100
2022-12-27T05:47:25.865Z,100
2022-12-27T05:52:23.976Z,100
2022-12-27T05:57:22.341Z,100
2022-12-27T06:02:20.807Z,100
2022-12-27T06:07:19.001Z,100
2022-12-27T06:12:17.270Z,100
2022-12-27T06:17:15.787Z,100
2022-12-27T06:22:14.300Z,100
2022-12-27T06:27:12.917Z,100
2022-12-27T06:32:11.370Z,100
2022-12-27T06:37:09.819Z,100
2022-12-27T06:42:08.210Z,100
2022-12-27T06:47:06.816Z,100
2022-12-27T06:52:05.205Z,100
2022-12-27T06:57:04.062Z,100
2022-12-27T07:02:03.486Z,100
2022-12-27T07:07:02.071Z,100
2022-12-27T07:12:06.166Z,93
2022-12-27T07:17:08.504Z,82.9
2022-12-27T07:22:09.589Z,75.9
2022-12-27T07:27:09.974Z,68.5
2022-12-27T07:32:09.456Z,65.1
2022-12-27T07:37:09.096Z,59
2022-12-27T07:42:08.478Z,53
2022-12-27T07:47:07.281Z,50.1
2022-12-27T07:52:06.303Z,47.9
2022-12-27T07:57:05.903Z,46.4
2022-12-27T08:02:05.475Z,44.3
2022-12-27T08:07:04.074Z,43.5
2022-12-27T08:12:03.032Z,42.5
2022-12-27T08:17:02.085Z,40.1
2022-12-27T08:22:00.756Z,40.2
2022-12-27T08:26:59.951Z,39.5
2022-12-27T08:31:59.073Z,39.4
2022-12-27T08:36:57.926Z,38
2022-12-27T08:41:56.752Z,37.9
2022-12-27T08:46:54.929Z,38.1
2022-12-27T08:51:52.819Z,37.9
2022-12-27T08:56:51.294Z,37.4
2022-12-27T09:01:50.830Z,37
2022-12-27T09:06:49.732Z,35.2
2022-12-27T09:11:48.138Z,35.6
2022-12-27T09:16:46.857Z,35.8
2022-12-27T09:21:45.491Z,35.7
2022-12-27T09:26:43.947Z,35.6
2022-12-27T09:31:42.248Z,35
2022-12-27T09:36:40.713Z,34.5
2022-12-27T09:46:37.927Z,33.5
2022-12-27T09:51:36.450Z,33.4
2022-12-27T09:56:54.332Z,32.7
2022-12-27T10:01:33.515Z,32.5
2022-12-27T10:06:31.462Z,32.1
2022-12-27T10:11:30.241Z,32.6
2022-12-27T10:16:28.150Z,31.3
2022-12-27T10:21:26.447Z,31
2022-12-27T10:26:24.996Z,30.9
2022-12-27T10:31:23.742Z,30.9
2022-12-27T10:36:22.226Z,30.2
2022-12-27T10:41:20.274Z,30.8
2022-12-27T10:46:18.836Z,31.1
2022-12-27T10:51:16.043Z,32.6
2022-12-27T10:56:14.088Z,33.4
2022-12-27T11:01:11.377Z,34.7
2022-12-27T11:06:09.129Z,35.6
2022-12-27T11:11:05.925Z,37.9
2022-12-27T11:16:02.916Z,40.1
2022-12-27T11:21:00.237Z,42.5
2022-12-27T11:25:58.018Z,42.9
2022-12-27T11:30:56.006Z,44
2022-12-27T11:35:54.626Z,42.6
2022-12-27T11:40:53.961Z,40.3
2022-12-27T11:45:52.893Z,38.6
2022-12-27T11:50:51.521Z,38.7
2022-12-27T11:55:49.130Z,41.3
2022-12-27T12:00:46.250Z,43.7
2022-12-27T12:05:43.561Z,46.4
2022-12-27T12:10:41.180Z,47.6
2022-12-27T12:15:39.061Z,47.8
2022-12-27T12:20:36.740Z,49.5
2022-12-27T12:25:34.568Z,50.9
2022-12-27T12:30:32.057Z,53.6
2022-12-27T12:35:29.755Z,55.5
2022-12-27T12:40:27.531Z,59
2022-12-27T12:45:25.305Z,61.4
2022-12-27T12:50:23.906Z,60.6
2022-12-27T12:55:22.416Z,59.8
2022-12-27T13:00:21.111Z,57.2
2022-12-27T13:05:19.977Z,56.8
2022-12-27T13:10:17.873Z,58.7
2022-12-27T13:15:15.262Z,61.5
2022-12-27T13:20:12.455Z,66
2022-12-27T13:25:09.748Z,72.1
2022-12-27T13:30:07.756Z,76.5
2022-12-27T13:35:04.987Z,80.2
2022-12-27T13:40:02.717Z,83.1
2022-12-27T13:45:00.716Z,85.2
2022-12-27T13:49:58.780Z,87.4
2022-12-27T13:54:56.892Z,88
2022-12-27T13:59:55.258Z,88.9
2022-12-27T14:04:59.264Z,88.3
2022-12-27T14:09:52.506Z,86.5
2022-12-27T14:14:50.917Z,86.6
2022-12-27T14:19:49.471Z,88.7
2022-12-27T14:24:47.503Z,89.2
2022-12-27T14:29:45.502Z,91.3
2022-12-27T14:34:43.617Z,94.1
2022-12-27T14:39:41.759Z,96.1
2022-12-27T14:44:40.024Z,97.5
2022-12-27T14:49:38.063Z,98.3
2022-12-27T14:54:36.321Z,97.5
2022-12-27T14:59:34.310Z,98.4
2022-12-27T15:04:32.321Z,99.1
2022-12-27T15:09:30.554Z,100
2022-12-27T15:14:28.872Z,100
2022-12-27T15:19:27.120Z,100
2022-12-27T15:24:25.484Z,100
2022-12-27T15:29:23.773Z,100
2022-12-27T15:34:21.982Z,100
2022-12-27T15:39:20.495Z,100
2022-12-27T15:44:19.033Z,100
2022-12-27T15:49:17.230Z,100
2022-12-27T15:54:15.288Z,100
2022-12-27T15:59:13.370Z,100
2022-12-27T16:04:11.421Z,100
2022-12-27T16:09:12.265Z,100
2022-12-27T16:14:10.200Z,100
2022-12-27T16:19:08.399Z,100
2022-12-27T16:24:06.845Z,100
2022-12-27T16:29:05.138Z,100
2022-12-27T16:34:03.398Z,100
2022-12-27T16:39:01.651Z,100
2022-12-27T16:44:00.154Z,100
2022-12-27T16:48:58.427Z,100
2022-12-27T16:53:56.553Z,100
2022-12-27T16:58:54.759Z,100
2022-12-27T17:03:53.008Z,100
2022-12-27T17:08:51.179Z,100
2022-12-27T17:13:49.370Z,100
2022-12-27T17:18:47.623Z,100
2022-12-27T17:23:46.054Z,100
2022-12-27T17:28:44.334Z,100
2022-12-27T17:33:42.519Z,100
2022-12-27T17:38:40.822Z,100
2022-12-27T17:43:39.366Z,100
2022-12-27T17:48:37.756Z,100
2022-12-27T17:53:36.176Z,100
2022-12-27T17:58:34.372Z,100
2022-12-27T18:03:32.686Z,100
2022-12-27T18:08:31.019Z,100
2022-12-27T18:13:29.390Z,100
2022-12-27T18:18:27.788Z,100
2022-12-27T18:23:26.522Z,100
2022-12-27T18:28:28.820Z,100
2022-12-27T18:33:22.875Z,100
2022-12-27T18:38:21.260Z,100
2022-12-27T18:43:34.820Z,100
2022-12-27T18:48:30.713Z,100
2022-12-27T18:53:28.974Z,100
2022-12-27T18:58:27.725Z,100
2022-12-27T19:03:26.571Z,100
2022-12-27T19:08:24.746Z,100
2022-12-27T19:13:23.251Z,100
2022-12-27T19:18:22.286Z,100
2022-12-27T19:23:21.079Z,100
2022-12-27T19:28:19.928Z,100
2022-12-27T19:33:18.000Z,100
2022-12-27T19:38:16.630Z,100
2022-12-27T19:43:15.016Z,100
2022-12-27T19:48:12.911Z,100
2022-12-27T19:53:11.197Z,100
2022-12-27T19:58:10.310Z,100
2022-12-27T20:03:08.805Z,100
2022-12-27T20:08:07.084Z,100
2022-12-27T20:13:05.427Z,100
2022-12-27T20:18:03.949Z,100
2022-12-27T20:23:02.225Z,100
2022-12-27T20:28:00.548Z,100
2022-12-27T20:32:58.843Z,100
2022-12-27T20:37:57.175Z,100
2022-12-27T20:42:55.668Z,100
2022-12-27T20:47:53.797Z,100
2022-12-27T20:52:52.082Z,100
2022-12-27T20:57:50.358Z,100
2022-12-27T21:02:48.854Z,100
2022-12-27T21:07:47.101Z,100
2022-12-27T21:12:45.315Z,100
2022-12-27T21:17:43.528Z,100
2022-12-27T21:22:41.985Z,100
2022-12-27T21:27:40.408Z,100
2022-12-27T21:32:38.848Z,100
2022-12-27T21:37:37.075Z,100
2022-12-27T21:42:35.419Z,100
2022-12-27T21:47:33.644Z,100
2022-12-27T21:52:31.935Z,100
2022-12-27T21:57:31.053Z,100
2022-12-27T22:02:29.350Z,100
2022-12-27T22:07:27.941Z,100
2022-12-27T22:12:26.404Z,100
2022-12-27T22:17:24.874Z,100
2022-12-27T22:22:23.504Z,100
2022-12-27T22:27:21.838Z,100
2022-12-27T22:32:20.498Z,100
2022-12-27T22:37:18.934Z,100
2022-12-27T22:42:17.819Z,100
2022-12-27T22:47:26.083Z,100
2022-12-27T22:52:13.067Z,100
2022-12-27T22:57:11.409Z,100
2022-12-27T23:02:09.865Z,100
2022-12-27T23:07:08.013Z,100
2022-12-27T23:12:06.495Z,100
2022-12-27T23:17:04.980Z,100
2022-12-27T23:22:03.572Z,100
2022-12-27T23:27:02.121Z,100
2022-12-27T23:32:00.583Z,100
2022-12-27T23:36:59.003Z,100
2022-12-27T23:41:57.474Z,100
2022-12-27T23:46:56.235Z,100
2022-12-27T23:51:54.737Z,100
2022-12-27T23:56:53.322Z,100
